sensor_id;sensor_type;location;lat;lon;timestamp;P1;durP1;ratioP1;P2;durP2;ratioP2
39848;SDS011;25518;47.878;15.914;2023-06-14T00:00:47;5.65;;;2.50;;
39848;SDS011;25518;47.878;15.914;2023-06-14T00:03:37;4.82;;;2.25;;
39848;SDS011;25518;47.878;15.914;2023-06-14T00:06:28;4.90;;;2.33;;
39848;SDS011;25518;47.878;15.914;2023-06-14T00:09:18;6.15;;;2.50;;
39848;SDS011;25518;47.878;15.914;2023-06-14T00:12:07;5.47;;;3.00;;
39848;SDS011;25518;47.878;15.914;2023-06-14T00:14:57;4.73;;;2.67;;
39848;SDS011;25518;47.878;15.914;2023-06-14T00:17:47;5.55;;;2.65;;
39848;SDS011;25518;47.878;15.914;2023-06-14T00:20:36;5.67;;;2.10;;
39848;SDS011;25518;47.878;15.914;2023-06-14T00:23:26;6.27;;;3.00;;
39848;SDS011;25518;47.878;15.914;2023-06-14T00:26:15;4.85;;;2.83;;
39848;SDS011;25518;47.878;15.914;2023-06-14T00:29:05;5.43;;;2.65;;
39848;SDS011;25518;47.878;15.914;2023-06-14T00:31:54;5.50;;;2.63;;
39848;SDS011;25518;47.878;15.914;2023-06-14T00:34:44;4.30;;;2.30;;
39848;SDS011;25518;47.878;15.914;2023-06-14T00:37:34;7.07;;;2.90;;
39848;SDS011;25518;47.878;15.914;2023-06-14T00:40:23;7.00;;;2.80;;
39848;SDS011;25518;47.878;15.914;2023-06-14T00:43:13;5.68;;;2.45;;
39848;SDS011;25518;47.878;15.914;2023-06-14T00:46:02;5.75;;;2.80;;
39848;SDS011;25518;47.878;15.914;2023-06-14T00:48:52;5.68;;;2.75;;
39848;SDS011;25518;47.878;15.914;2023-06-14T00:51:43;4.82;;;2.70;;
39848;SDS011;25518;47.878;15.914;2023-06-14T00:54:32;6.45;;;2.80;;
39848;SDS011;25518;47.878;15.914;2023-06-14T00:57:22;5.53;;;2.58;;
39848;SDS011;25518;47.878;15.914;2023-06-14T01:00:13;4.78;;;2.47;;
39848;SDS011;25518;47.878;15.914;2023-06-14T01:03:03;4.75;;;2.50;;
39848;SDS011;25518;47.878;15.914;2023-06-14T01:05:56;4.78;;;2.85;;
39848;SDS011;25518;47.878;15.914;2023-06-14T01:12:11;4.65;;;2.60;;
39848;SDS011;25518;47.878;15.914;2023-06-14T01:15:06;3.95;;;2.40;;
39848;SDS011;25518;47.878;15.914;2023-06-14T01:17:57;5.50;;;3.10;;
39848;SDS011;25518;47.878;15.914;2023-06-14T01:20:52;3.72;;;2.30;;
39848;SDS011;25518;47.878;15.914;2023-06-14T01:23:43;4.47;;;2.40;;
39848;SDS011;25518;47.878;15.914;2023-06-14T01:26:33;5.22;;;2.58;;
39848;SDS011;25518;47.878;15.914;2023-06-14T01:29:26;6.05;;;3.00;;
39848;SDS011;25518;47.878;15.914;2023-06-14T01:32:21;4.85;;;2.40;;
39848;SDS011;25518;47.878;15.914;2023-06-14T01:35:15;5.50;;;2.75;;
39848;SDS011;25518;47.878;15.914;2023-06-14T01:38:05;4.22;;;2.40;;
39848;SDS011;25518;47.878;15.914;2023-06-14T01:40:57;6.45;;;2.70;;
39848;SDS011;25518;47.878;15.914;2023-06-14T01:43:49;6.35;;;2.50;;
39848;SDS011;25518;47.878;15.914;2023-06-14T01:46:41;3.58;;;2.03;;
39848;SDS011;25518;47.878;15.914;2023-06-14T01:49:33;8.10;;;2.80;;
39848;SDS011;25518;47.878;15.914;2023-06-14T01:52:24;5.07;;;2.40;;
39848;SDS011;25518;47.878;15.914;2023-06-14T01:55:13;4.60;;;2.55;;
39848;SDS011;25518;47.878;15.914;2023-06-14T01:58:04;7.57;;;2.93;;
39848;SDS011;25518;47.878;15.914;2023-06-14T02:00:54;5.05;;;2.20;;
39848;SDS011;25518;47.878;15.914;2023-06-14T02:03:45;4.63;;;2.30;;
39848;SDS011;25518;47.878;15.914;2023-06-14T02:06:35;6.60;;;2.70;;
39848;SDS011;25518;47.878;15.914;2023-06-14T02:09:24;5.40;;;2.35;;
39848;SDS011;25518;47.878;15.914;2023-06-14T02:12:14;4.32;;;2.50;;
39848;SDS011;25518;47.878;15.914;2023-06-14T02:15:03;4.28;;;2.28;;
39848;SDS011;25518;47.878;15.914;2023-06-14T02:17:55;4.18;;;2.35;;
39848;SDS011;25518;47.878;15.914;2023-06-14T02:20:44;5.57;;;2.40;;
39848;SDS011;25518;47.878;15.914;2023-06-14T02:23:34;5.35;;;2.38;;
39848;SDS011;25518;47.878;15.914;2023-06-14T02:26:23;5.45;;;2.67;;
39848;SDS011;25518;47.878;15.914;2023-06-14T02:29:14;5.00;;;2.70;;
39848;SDS011;25518;47.878;15.914;2023-06-14T02:32:05;4.55;;;2.50;;
39848;SDS011;25518;47.878;15.914;2023-06-14T02:34:55;4.07;;;2.50;;
39848;SDS011;25518;47.878;15.914;2023-06-14T02:37:46;4.13;;;2.58;;
39848;SDS011;25518;47.878;15.914;2023-06-14T02:40:35;5.22;;;2.60;;
39848;SDS011;25518;47.878;15.914;2023-06-14T02:43:25;5.32;;;2.97;;
39848;SDS011;25518;47.878;15.914;2023-06-14T02:46:15;4.05;;;2.45;;
39848;SDS011;25518;47.878;15.914;2023-06-14T02:49:04;4.65;;;2.72;;
39848;SDS011;25518;47.878;15.914;2023-06-14T02:51:54;4.68;;;2.60;;
39848;SDS011;25518;47.878;15.914;2023-06-14T02:54:44;7.05;;;2.67;;
39848;SDS011;25518;47.878;15.914;2023-06-14T02:57:36;4.45;;;2.90;;
39848;SDS011;25518;47.878;15.914;2023-06-14T03:00:25;5.68;;;2.60;;
39848;SDS011;25518;47.878;15.914;2023-06-14T03:20:14;7.00;;;2.97;;
39848;SDS011;25518;47.878;15.914;2023-06-14T03:23:04;4.68;;;2.90;;
39848;SDS011;25518;47.878;15.914;2023-06-14T03:25:55;6.65;;;2.70;;
39848;SDS011;25518;47.878;15.914;2023-06-14T03:28:45;5.77;;;3.03;;
39848;SDS011;25518;47.878;15.914;2023-06-14T03:31:35;5.68;;;3.05;;
39848;SDS011;25518;47.878;15.914;2023-06-14T03:34:24;6.77;;;3.00;;
39848;SDS011;25518;47.878;15.914;2023-06-14T03:37:15;6.70;;;3.17;;
39848;SDS011;25518;47.878;15.914;2023-06-14T03:40:04;6.50;;;3.00;;
39848;SDS011;25518;47.878;15.914;2023-06-14T03:42:55;6.30;;;3.05;;
39848;SDS011;25518;47.878;15.914;2023-06-14T03:45:44;5.63;;;3.10;;
39848;SDS011;25518;47.878;15.914;2023-06-14T03:48:34;4.75;;;2.60;;
39848;SDS011;25518;47.878;15.914;2023-06-14T03:51:24;5.30;;;2.70;;
39848;SDS011;25518;47.878;15.914;2023-06-14T03:54:14;7.20;;;3.33;;
39848;SDS011;25518;47.878;15.914;2023-06-14T03:57:04;7.60;;;3.50;;
39848;SDS011;25518;47.878;15.914;2023-06-14T03:59:55;6.50;;;3.15;;
39848;SDS011;25518;47.878;15.914;2023-06-14T04:02:44;5.82;;;2.83;;
39848;SDS011;25518;47.878;15.914;2023-06-14T04:05:34;8.15;;;3.13;;
39848;SDS011;25518;47.878;15.914;2023-06-14T04:08:25;6.72;;;3.25;;
39848;SDS011;25518;47.878;15.914;2023-06-14T04:11:15;5.05;;;3.08;;
39848;SDS011;25518;47.878;15.914;2023-06-14T04:14:05;7.07;;;3.05;;
39848;SDS011;25518;47.878;15.914;2023-06-14T04:16:55;5.20;;;3.38;;
39848;SDS011;25518;47.878;15.914;2023-06-14T04:19:44;5.32;;;3.42;;
39848;SDS011;25518;47.878;15.914;2023-06-14T04:22:34;5.32;;;2.83;;
39848;SDS011;25518;47.878;15.914;2023-06-14T04:25:25;7.88;;;3.40;;
39848;SDS011;25518;47.878;15.914;2023-06-14T04:28:16;7.00;;;3.50;;
39848;SDS011;25518;47.878;15.914;2023-06-14T04:31:07;6.47;;;3.10;;
39848;SDS011;25518;47.878;15.914;2023-06-14T04:33:58;6.47;;;3.37;;
39848;SDS011;25518;47.878;15.914;2023-06-14T04:36:48;8.02;;;5.40;;
39848;SDS011;25518;47.878;15.914;2023-06-14T04:39:37;6.65;;;3.58;;
39848;SDS011;25518;47.878;15.914;2023-06-14T04:42:27;5.70;;;3.45;;
39848;SDS011;25518;47.878;15.914;2023-06-14T04:45:19;6.80;;;3.40;;
39848;SDS011;25518;47.878;15.914;2023-06-14T04:48:10;5.40;;;3.50;;
39848;SDS011;25518;47.878;15.914;2023-06-14T04:51:00;5.32;;;2.75;;
39848;SDS011;25518;47.878;15.914;2023-06-14T04:53:53;9.65;;;3.38;;
39848;SDS011;25518;47.878;15.914;2023-06-14T04:56:45;8.65;;;3.33;;
39848;SDS011;25518;47.878;15.914;2023-06-14T04:59:35;6.47;;;3.43;;
39848;SDS011;25518;47.878;15.914;2023-06-14T05:02:25;6.22;;;3.13;;
39848;SDS011;25518;47.878;15.914;2023-06-14T05:05:15;6.03;;;3.45;;
39848;SDS011;25518;47.878;15.914;2023-06-14T05:08:07;4.88;;;3.22;;
39848;SDS011;25518;47.878;15.914;2023-06-14T05:10:57;5.85;;;3.28;;
39848;SDS011;25518;47.878;15.914;2023-06-14T05:13:46;6.10;;;2.88;;
39848;SDS011;25518;47.878;15.914;2023-06-14T05:16:36;5.07;;;3.25;;
39848;SDS011;25518;47.878;15.914;2023-06-14T05:19:26;6.90;;;3.73;;
39848;SDS011;25518;47.878;15.914;2023-06-14T05:22:16;9.38;;;3.22;;
39848;SDS011;25518;47.878;15.914;2023-06-14T05:25:06;6.10;;;3.38;;
39848;SDS011;25518;47.878;15.914;2023-06-14T05:27:56;5.55;;;3.20;;
39848;SDS011;25518;47.878;15.914;2023-06-14T05:30:46;6.18;;;3.83;;
39848;SDS011;25518;47.878;15.914;2023-06-14T05:33:35;5.55;;;3.15;;
39848;SDS011;25518;47.878;15.914;2023-06-14T05:36:25;8.73;;;3.33;;
39848;SDS011;25518;47.878;15.914;2023-06-14T05:39:16;5.78;;;3.45;;
39848;SDS011;25518;47.878;15.914;2023-06-14T05:42:06;7.47;;;3.10;;
39848;SDS011;25518;47.878;15.914;2023-06-14T05:44:56;5.80;;;3.08;;
39848;SDS011;25518;47.878;15.914;2023-06-14T05:47:46;6.13;;;3.65;;
39848;SDS011;25518;47.878;15.914;2023-06-14T05:50:35;5.80;;;3.38;;
39848;SDS011;25518;47.878;15.914;2023-06-14T05:53:25;8.20;;;3.45;;
39848;SDS011;25518;47.878;15.914;2023-06-14T05:56:15;8.52;;;4.85;;
39848;SDS011;25518;47.878;15.914;2023-06-14T05:59:06;6.93;;;3.92;;
39848;SDS011;25518;47.878;15.914;2023-06-14T06:01:56;6.87;;;4.20;;
39848;SDS011;25518;47.878;15.914;2023-06-14T06:04:46;6.90;;;3.80;;
39848;SDS011;25518;47.878;15.914;2023-06-14T06:07:36;8.05;;;3.75;;
39848;SDS011;25518;47.878;15.914;2023-06-14T06:10:26;8.85;;;4.43;;
39848;SDS011;25518;47.878;15.914;2023-06-14T06:13:16;7.50;;;4.03;;
39848;SDS011;25518;47.878;15.914;2023-06-14T06:16:05;6.15;;;3.70;;
39848;SDS011;25518;47.878;15.914;2023-06-14T06:18:55;14.98;;;6.70;;
39848;SDS011;25518;47.878;15.914;2023-06-14T06:21:44;12.70;;;6.60;;
39848;SDS011;25518;47.878;15.914;2023-06-14T06:24:34;7.07;;;4.40;;
39848;SDS011;25518;47.878;15.914;2023-06-14T06:27:23;10.95;;;4.53;;
39848;SDS011;25518;47.878;15.914;2023-06-14T06:30:13;8.52;;;4.40;;
39848;SDS011;25518;47.878;15.914;2023-06-14T06:33:03;8.52;;;4.10;;
39848;SDS011;25518;47.878;15.914;2023-06-14T06:35:53;7.40;;;4.10;;
39848;SDS011;25518;47.878;15.914;2023-06-14T06:38:42;6.65;;;3.50;;
39848;SDS011;25518;47.878;15.914;2023-06-14T06:41:32;7.47;;;3.88;;
39848;SDS011;25518;47.878;15.914;2023-06-14T06:44:24;6.85;;;3.70;;
39848;SDS011;25518;47.878;15.914;2023-06-14T06:47:13;5.55;;;3.78;;
39848;SDS011;25518;47.878;15.914;2023-06-14T06:50:03;5.47;;;3.38;;
39848;SDS011;25518;47.878;15.914;2023-06-14T06:52:55;7.95;;;3.40;;
39848;SDS011;25518;47.878;15.914;2023-06-14T06:55:44;5.47;;;3.40;;
39848;SDS011;25518;47.878;15.914;2023-06-14T06:58:34;5.90;;;3.40;;
39848;SDS011;25518;47.878;15.914;2023-06-14T07:01:24;6.17;;;3.10;;
39848;SDS011;25518;47.878;15.914;2023-06-14T07:04:14;4.43;;;2.83;;
39848;SDS011;25518;47.878;15.914;2023-06-14T07:07:05;5.05;;;3.08;;
39848;SDS011;25518;47.878;15.914;2023-06-14T07:09:54;5.80;;;3.28;;
39848;SDS011;25518;47.878;15.914;2023-06-14T07:12:46;6.78;;;3.20;;
39848;SDS011;25518;47.878;15.914;2023-06-14T07:15:35;4.95;;;3.03;;
39848;SDS011;25518;47.878;15.914;2023-06-14T07:18:25;5.10;;;2.42;;
39848;SDS011;25518;47.878;15.914;2023-06-14T07:21:15;6.50;;;3.33;;
39848;SDS011;25518;47.878;15.914;2023-06-14T07:24:06;5.28;;;2.45;;
39848;SDS011;25518;47.878;15.914;2023-06-14T07:26:56;5.13;;;2.88;;
39848;SDS011;25518;47.878;15.914;2023-06-14T07:29:46;4.97;;;2.50;;
39848;SDS011;25518;47.878;15.914;2023-06-14T07:32:36;6.25;;;2.90;;
39848;SDS011;25518;47.878;15.914;2023-06-14T07:35:25;4.90;;;2.83;;
39848;SDS011;25518;47.878;15.914;2023-06-14T07:38:15;7.15;;;3.33;;
39848;SDS011;25518;47.878;15.914;2023-06-14T07:41:05;4.95;;;2.85;;
39848;SDS011;25518;47.878;15.914;2023-06-14T07:43:54;6.45;;;2.90;;
39848;SDS011;25518;47.878;15.914;2023-06-14T07:46:44;4.82;;;2.97;;
39848;SDS011;25518;47.878;15.914;2023-06-14T07:49:37;6.60;;;3.20;;
39848;SDS011;25518;47.878;15.914;2023-06-14T07:52:27;5.13;;;2.97;;
39848;SDS011;25518;47.878;15.914;2023-06-14T07:55:17;7.07;;;2.95;;
39848;SDS011;25518;47.878;15.914;2023-06-14T07:58:07;5.53;;;2.55;;
39848;SDS011;25518;47.878;15.914;2023-06-14T08:00:56;4.47;;;2.53;;
39848;SDS011;25518;47.878;15.914;2023-06-14T08:03:46;5.07;;;2.70;;
39848;SDS011;25518;47.878;15.914;2023-06-14T08:06:36;4.65;;;2.67;;
39848;SDS011;25518;47.878;15.914;2023-06-14T08:09:26;4.65;;;2.30;;
39848;SDS011;25518;47.878;15.914;2023-06-14T08:12:17;4.20;;;2.30;;
39848;SDS011;25518;47.878;15.914;2023-06-14T08:15:08;6.13;;;2.50;;
39848;SDS011;25518;47.878;15.914;2023-06-14T08:17:58;4.00;;;2.20;;
39848;SDS011;25518;47.878;15.914;2023-06-14T08:20:50;5.22;;;2.47;;
39848;SDS011;25518;47.878;15.914;2023-06-14T08:23:40;4.17;;;2.10;;
39848;SDS011;25518;47.878;15.914;2023-06-14T08:26:33;4.95;;;2.20;;
39848;SDS011;25518;47.878;15.914;2023-06-14T08:29:25;5.07;;;2.27;;
39848;SDS011;25518;47.878;15.914;2023-06-14T08:32:18;6.95;;;2.50;;
39848;SDS011;25518;47.878;15.914;2023-06-14T08:35:08;4.38;;;2.10;;
39848;SDS011;25518;47.878;15.914;2023-06-14T08:37:57;3.28;;;1.88;;
39848;SDS011;25518;47.878;15.914;2023-06-14T08:40:48;4.07;;;2.17;;
39848;SDS011;25518;47.878;15.914;2023-06-14T08:43:40;4.27;;;2.23;;
39848;SDS011;25518;47.878;15.914;2023-06-14T08:46:29;4.07;;;2.33;;
39848;SDS011;25518;47.878;15.914;2023-06-14T08:49:22;5.00;;;2.43;;
39848;SDS011;25518;47.878;15.914;2023-06-14T08:52:13;4.10;;;1.98;;
39848;SDS011;25518;47.878;15.914;2023-06-14T08:55:07;5.38;;;2.03;;
39848;SDS011;25518;47.878;15.914;2023-06-14T08:57:58;4.87;;;2.10;;
39848;SDS011;25518;47.878;15.914;2023-06-14T09:00:47;3.85;;;2.05;;
39848;SDS011;25518;47.878;15.914;2023-06-14T09:03:38;3.50;;;1.70;;
39848;SDS011;25518;47.878;15.914;2023-06-14T09:06:29;4.13;;;2.30;;
39848;SDS011;25518;47.878;15.914;2023-06-14T09:09:20;4.32;;;1.90;;
39848;SDS011;25518;47.878;15.914;2023-06-14T09:12:11;4.00;;;2.00;;
39848;SDS011;25518;47.878;15.914;2023-06-14T09:15:02;3.25;;;1.70;;
39848;SDS011;25518;47.878;15.914;2023-06-14T09:17:54;5.93;;;2.30;;
39848;SDS011;25518;47.878;15.914;2023-06-14T09:20:44;3.17;;;1.70;;
39848;SDS011;25518;47.878;15.914;2023-06-14T09:23:36;6.15;;;2.63;;
39848;SDS011;25518;47.878;15.914;2023-06-14T09:26:26;4.85;;;2.25;;
39848;SDS011;25518;47.878;15.914;2023-06-14T09:29:16;4.63;;;1.88;;
39848;SDS011;25518;47.878;15.914;2023-06-14T09:32:07;4.53;;;1.90;;
39848;SDS011;25518;47.878;15.914;2023-06-14T09:34:57;3.77;;;1.90;;
39848;SDS011;25518;47.878;15.914;2023-06-14T09:37:47;4.72;;;2.30;;
39848;SDS011;25518;47.878;15.914;2023-06-14T09:40:37;5.65;;;1.98;;
39848;SDS011;25518;47.878;15.914;2023-06-14T09:43:27;5.07;;;1.70;;
39848;SDS011;25518;47.878;15.914;2023-06-14T09:46:17;4.07;;;1.90;;
39848;SDS011;25518;47.878;15.914;2023-06-14T09:49:09;5.35;;;1.95;;
39848;SDS011;25518;47.878;15.914;2023-06-14T09:51:59;4.82;;;2.00;;
39848;SDS011;25518;47.878;15.914;2023-06-14T09:54:50;4.65;;;1.75;;
39848;SDS011;25518;47.878;15.914;2023-06-14T09:57:41;3.80;;;1.88;;
39848;SDS011;25518;47.878;15.914;2023-06-14T10:00:36;4.15;;;2.20;;
39848;SDS011;25518;47.878;15.914;2023-06-14T10:03:28;4.53;;;2.03;;
39848;SDS011;25518;47.878;15.914;2023-06-14T10:06:19;4.40;;;1.83;;
39848;SDS011;25518;47.878;15.914;2023-06-14T10:09:13;4.13;;;1.83;;
39848;SDS011;25518;47.878;15.914;2023-06-14T10:12:03;3.55;;;1.83;;
39848;SDS011;25518;47.878;15.914;2023-06-14T10:14:54;3.80;;;1.73;;
39848;SDS011;25518;47.878;15.914;2023-06-14T10:17:47;4.13;;;2.03;;
39848;SDS011;25518;47.878;15.914;2023-06-14T10:20:46;4.55;;;1.88;;
39848;SDS011;25518;47.878;15.914;2023-06-14T10:23:47;3.80;;;2.00;;
39848;SDS011;25518;47.878;15.914;2023-06-14T10:26:49;3.97;;;2.10;;
39848;SDS011;25518;47.878;15.914;2023-06-14T10:30:02;4.30;;;1.90;;
39848;SDS011;25518;47.878;15.914;2023-06-14T10:33:07;3.30;;;1.80;;
39848;SDS011;25518;47.878;15.914;2023-06-14T10:36:06;5.57;;;2.00;;
39848;SDS011;25518;47.878;15.914;2023-06-14T10:38:57;3.55;;;1.80;;
39848;SDS011;25518;47.878;15.914;2023-06-14T10:41:51;3.90;;;1.70;;
39848;SDS011;25518;47.878;15.914;2023-06-14T10:44:44;4.45;;;2.00;;
39848;SDS011;25518;47.878;15.914;2023-06-14T10:47:38;3.58;;;1.70;;
39848;SDS011;25518;47.878;15.914;2023-06-14T10:50:28;3.55;;;1.85;;
39848;SDS011;25518;47.878;15.914;2023-06-14T10:53:25;3.80;;;1.85;;
39848;SDS011;25518;47.878;15.914;2023-06-14T10:56:30;3.30;;;1.88;;
39848;SDS011;25518;47.878;15.914;2023-06-14T10:59:21;3.83;;;1.90;;
39848;SDS011;25518;47.878;15.914;2023-06-14T11:05:09;4.50;;;2.08;;
39848;SDS011;25518;47.878;15.914;2023-06-14T11:08:40;4.30;;;2.10;;
39848;SDS011;25518;47.878;15.914;2023-06-14T11:11:16;4.40;;;2.13;;
39848;SDS011;25518;47.878;15.914;2023-06-14T11:14:07;5.07;;;2.38;;
39848;SDS011;25518;47.878;15.914;2023-06-14T11:16:57;7.15;;;2.35;;
39848;SDS011;25518;47.878;15.914;2023-06-14T11:19:49;5.30;;;2.00;;
39848;SDS011;25518;47.878;15.914;2023-06-14T11:22:40;4.30;;;2.13;;
39848;SDS011;25518;47.878;15.914;2023-06-14T11:25:31;4.85;;;2.00;;
39848;SDS011;25518;47.878;15.914;2023-06-14T11:28:21;5.55;;;2.22;;
39848;SDS011;25518;47.878;15.914;2023-06-14T11:31:12;3.75;;;1.85;;
39848;SDS011;25518;47.878;15.914;2023-06-14T11:34:02;6.00;;;2.40;;
39848;SDS011;25518;47.878;15.914;2023-06-14T11:36:52;4.68;;;1.90;;
39848;SDS011;25518;47.878;15.914;2023-06-14T11:39:43;5.72;;;2.28;;
39848;SDS011;25518;47.878;15.914;2023-06-14T11:42:34;5.90;;;2.40;;
39848;SDS011;25518;47.878;15.914;2023-06-14T11:45:24;5.40;;;2.08;;
39848;SDS011;25518;47.878;15.914;2023-06-14T11:48:14;5.70;;;2.08;;
39848;SDS011;25518;47.878;15.914;2023-06-14T11:51:03;4.07;;;2.10;;
39848;SDS011;25518;47.878;15.914;2023-06-14T11:53:53;4.43;;;1.83;;
39848;SDS011;25518;47.878;15.914;2023-06-14T11:56:43;4.40;;;2.28;;
39848;SDS011;25518;47.878;15.914;2023-06-14T11:59:40;4.15;;;1.92;;
39848;SDS011;25518;47.878;15.914;2023-06-14T12:02:30;3.83;;;2.10;;
39848;SDS011;25518;47.878;15.914;2023-06-14T12:05:21;4.60;;;1.90;;
39848;SDS011;25518;47.878;15.914;2023-06-14T12:08:11;4.05;;;1.90;;
39848;SDS011;25518;47.878;15.914;2023-06-14T12:11:07;5.80;;;2.07;;
39848;SDS011;25518;47.878;15.914;2023-06-14T12:14:00;4.95;;;1.88;;
39848;SDS011;25518;47.878;15.914;2023-06-14T12:16:52;5.18;;;2.10;;
39848;SDS011;25518;47.878;15.914;2023-06-14T12:19:55;6.32;;;1.88;;
39848;SDS011;25518;47.878;15.914;2023-06-14T12:22:52;4.18;;;2.22;;
39848;SDS011;25518;47.878;15.914;2023-06-14T12:25:42;6.25;;;2.30;;
39848;SDS011;25518;47.878;15.914;2023-06-14T12:28:34;3.90;;;1.95;;
39848;SDS011;25518;47.878;15.914;2023-06-14T12:31:23;3.92;;;2.13;;
39848;SDS011;25518;47.878;15.914;2023-06-14T12:34:13;8.23;;;2.60;;
39848;SDS011;25518;47.878;15.914;2023-06-14T12:37:02;5.07;;;2.15;;
39848;SDS011;25518;47.878;15.914;2023-06-14T12:39:53;3.55;;;2.10;;
39848;SDS011;25518;47.878;15.914;2023-06-14T12:42:44;3.47;;;1.80;;
39848;SDS011;25518;47.878;15.914;2023-06-14T12:45:36;3.63;;;1.92;;
39848;SDS011;25518;47.878;15.914;2023-06-14T12:48:25;4.82;;;2.30;;
39848;SDS011;25518;47.878;15.914;2023-06-14T12:51:16;5.55;;;2.25;;
39848;SDS011;25518;47.878;15.914;2023-06-14T12:54:05;14.27;;;4.10;;
39848;SDS011;25518;47.878;15.914;2023-06-14T12:56:55;5.40;;;2.50;;
39848;SDS011;25518;47.878;15.914;2023-06-14T12:59:45;4.88;;;2.03;;
39848;SDS011;25518;47.878;15.914;2023-06-14T13:02:34;5.25;;;2.35;;
39848;SDS011;25518;47.878;15.914;2023-06-14T13:05:24;3.42;;;2.08;;
39848;SDS011;25518;47.878;15.914;2023-06-14T13:08:14;6.13;;;2.10;;
39848;SDS011;25518;47.878;15.914;2023-06-14T13:11:04;3.75;;;1.98;;
39848;SDS011;25518;47.878;15.914;2023-06-14T13:13:54;3.97;;;2.00;;
39848;SDS011;25518;47.878;15.914;2023-06-14T13:16:43;4.60;;;2.20;;
39848;SDS011;25518;47.878;15.914;2023-06-14T13:19:33;4.07;;;2.10;;
39848;SDS011;25518;47.878;15.914;2023-06-14T13:22:24;3.97;;;2.17;;
39848;SDS011;25518;47.878;15.914;2023-06-14T13:25:14;4.32;;;2.25;;
39848;SDS011;25518;47.878;15.914;2023-06-14T13:28:03;4.05;;;2.30;;
39848;SDS011;25518;47.878;15.914;2023-06-14T13:30:54;4.38;;;2.35;;
39848;SDS011;25518;47.878;15.914;2023-06-14T13:33:44;3.63;;;1.90;;
39848;SDS011;25518;47.878;15.914;2023-06-14T13:36:34;3.60;;;1.90;;
39848;SDS011;25518;47.878;15.914;2023-06-14T13:39:23;5.38;;;2.35;;
39848;SDS011;25518;47.878;15.914;2023-06-14T13:42:14;6.70;;;2.27;;
39848;SDS011;25518;47.878;15.914;2023-06-14T13:45:04;5.38;;;2.30;;
39848;SDS011;25518;47.878;15.914;2023-06-14T13:47:54;4.72;;;2.35;;
39848;SDS011;25518;47.878;15.914;2023-06-14T13:50:43;4.20;;;2.10;;
39848;SDS011;25518;47.878;15.914;2023-06-14T13:53:34;3.40;;;1.92;;
39848;SDS011;25518;47.878;15.914;2023-06-14T13:56:24;3.92;;;2.10;;
39848;SDS011;25518;47.878;15.914;2023-06-14T13:59:14;6.63;;;2.33;;
39848;SDS011;25518;47.878;15.914;2023-06-14T14:02:05;4.60;;;2.30;;
39848;SDS011;25518;47.878;15.914;2023-06-14T14:04:56;4.95;;;2.33;;
39848;SDS011;25518;47.878;15.914;2023-06-14T14:07:46;7.10;;;2.00;;
39848;SDS011;25518;47.878;15.914;2023-06-14T14:10:36;6.80;;;2.28;;
39848;SDS011;25518;47.878;15.914;2023-06-14T14:13:25;3.88;;;1.85;;
39848;SDS011;25518;47.878;15.914;2023-06-14T14:16:15;6.10;;;2.25;;
39848;SDS011;25518;47.878;15.914;2023-06-14T14:19:05;5.47;;;2.10;;
39848;SDS011;25518;47.878;15.914;2023-06-14T14:21:55;5.90;;;2.20;;
39848;SDS011;25518;47.878;15.914;2023-06-14T14:24:44;3.50;;;2.00;;
39848;SDS011;25518;47.878;15.914;2023-06-14T14:27:34;3.45;;;1.92;;
39848;SDS011;25518;47.878;15.914;2023-06-14T14:30:24;4.35;;;2.00;;
39848;SDS011;25518;47.878;15.914;2023-06-14T14:33:15;3.58;;;1.90;;
39848;SDS011;25518;47.878;15.914;2023-06-14T14:36:06;6.05;;;2.40;;
39848;SDS011;25518;47.878;15.914;2023-06-14T14:38:56;4.45;;;2.28;;
39848;SDS011;25518;47.878;15.914;2023-06-14T14:41:46;6.47;;;2.35;;
39848;SDS011;25518;47.878;15.914;2023-06-14T14:44:36;3.70;;;2.03;;
39848;SDS011;25518;47.878;15.914;2023-06-14T14:47:25;3.13;;;1.70;;
39848;SDS011;25518;47.878;15.914;2023-06-14T14:50:15;3.75;;;1.90;;
39848;SDS011;25518;47.878;15.914;2023-06-14T14:53:05;4.38;;;2.08;;
39848;SDS011;25518;47.878;15.914;2023-06-14T14:55:56;6.88;;;2.30;;
39848;SDS011;25518;47.878;15.914;2023-06-14T14:58:45;4.20;;;2.20;;
39848;SDS011;25518;47.878;15.914;2023-06-14T15:01:37;3.85;;;1.90;;
39848;SDS011;25518;47.878;15.914;2023-06-14T15:04:27;5.60;;;2.25;;
39848;SDS011;25518;47.878;15.914;2023-06-14T15:07:17;4.60;;;1.90;;
39848;SDS011;25518;47.878;15.914;2023-06-14T15:10:07;3.65;;;2.22;;
39848;SDS011;25518;47.878;15.914;2023-06-14T15:12:57;4.30;;;2.08;;
39848;SDS011;25518;47.878;15.914;2023-06-14T15:15:47;6.20;;;2.28;;
39848;SDS011;25518;47.878;15.914;2023-06-14T15:18:36;4.47;;;2.30;;
39848;SDS011;25518;47.878;15.914;2023-06-14T15:21:26;3.92;;;2.05;;
39848;SDS011;25518;47.878;15.914;2023-06-14T15:24:16;5.00;;;2.30;;
39848;SDS011;25518;47.878;15.914;2023-06-14T15:27:05;4.43;;;2.10;;
39848;SDS011;25518;47.878;15.914;2023-06-14T15:29:55;4.47;;;2.30;;
39848;SDS011;25518;47.878;15.914;2023-06-14T15:32:44;3.35;;;2.20;;
39848;SDS011;25518;47.878;15.914;2023-06-14T15:35:34;5.30;;;2.40;;
39848;SDS011;25518;47.878;15.914;2023-06-14T15:38:24;4.57;;;2.40;;
39848;SDS011;25518;47.878;15.914;2023-06-14T15:41:13;6.80;;;2.45;;
39848;SDS011;25518;47.878;15.914;2023-06-14T15:44:03;5.10;;;2.50;;
39848;SDS011;25518;47.878;15.914;2023-06-14T15:46:53;4.57;;;2.03;;
39848;SDS011;25518;47.878;15.914;2023-06-14T15:49:43;5.25;;;2.22;;
39848;SDS011;25518;47.878;15.914;2023-06-14T15:52:33;4.10;;;2.30;;
39848;SDS011;25518;47.878;15.914;2023-06-14T15:55:23;4.93;;;2.50;;
39848;SDS011;25518;47.878;15.914;2023-06-14T15:58:13;3.83;;;2.17;;
39848;SDS011;25518;47.878;15.914;2023-06-14T16:01:03;7.03;;;2.25;;
39848;SDS011;25518;47.878;15.914;2023-06-14T16:03:53;5.90;;;2.28;;
39848;SDS011;25518;47.878;15.914;2023-06-14T16:06:44;5.20;;;2.33;;
39848;SDS011;25518;47.878;15.914;2023-06-14T16:09:34;3.85;;;2.22;;
39848;SDS011;25518;47.878;15.914;2023-06-14T16:12:23;3.40;;;2.08;;
39848;SDS011;25518;47.878;15.914;2023-06-14T16:15:14;5.28;;;2.60;;
39848;SDS011;25518;47.878;15.914;2023-06-14T16:18:03;6.75;;;2.72;;
39848;SDS011;25518;47.878;15.914;2023-06-14T16:20:52;5.18;;;2.20;;
39848;SDS011;25518;47.878;15.914;2023-06-14T16:23:43;5.63;;;2.47;;
39848;SDS011;25518;47.878;15.914;2023-06-14T16:26:34;5.65;;;2.38;;
39848;SDS011;25518;47.878;15.914;2023-06-14T16:29:23;5.53;;;2.15;;
39848;SDS011;25518;47.878;15.914;2023-06-14T16:32:13;3.78;;;2.33;;
39848;SDS011;25518;47.878;15.914;2023-06-14T16:35:02;6.18;;;2.50;;
39848;SDS011;25518;47.878;15.914;2023-06-14T16:37:52;3.57;;;2.30;;
39848;SDS011;25518;47.878;15.914;2023-06-14T16:40:42;4.78;;;2.22;;
39848;SDS011;25518;47.878;15.914;2023-06-14T16:43:32;4.22;;;2.38;;
39848;SDS011;25518;47.878;15.914;2023-06-14T16:46:29;3.90;;;2.20;;
39848;SDS011;25518;47.878;15.914;2023-06-14T16:49:19;5.50;;;2.60;;
39848;SDS011;25518;47.878;15.914;2023-06-14T16:52:09;4.90;;;2.80;;
39848;SDS011;25518;47.878;15.914;2023-06-14T16:54:58;3.80;;;2.05;;
39848;SDS011;25518;47.878;15.914;2023-06-14T16:57:48;4.25;;;2.20;;
39848;SDS011;25518;47.878;15.914;2023-06-14T17:00:39;3.78;;;2.17;;
39848;SDS011;25518;47.878;15.914;2023-06-14T17:03:29;5.53;;;2.47;;
39848;SDS011;25518;47.878;15.914;2023-06-14T17:06:21;4.80;;;2.38;;
39848;SDS011;25518;47.878;15.914;2023-06-14T17:09:11;7.88;;;2.83;;
39848;SDS011;25518;47.878;15.914;2023-06-14T17:12:02;3.72;;;2.60;;
39848;SDS011;25518;47.878;15.914;2023-06-14T17:14:52;6.85;;;2.75;;